SCC: Mid-Ohio: GS practice two times

Pos Num Class Team Time Gap To 1st Speed --- --- ----- ------------------------------ ---------- ------- ------- ------- 1. 09 GS Automatic Racing 1:33.598 86.848 2. 96...

Pos Num Class Team                                 Time     Gap  To 1st   Speed
--- --- ----- ------------------------------ ---------- ------- ------- -------
 1.  09 GS    Automatic Racing                 1:33.598                  86.848
 2.  96 GS    Turner Motorsport                1:33.663   0.065   0.065  86.788
 3.  80 GS    Kinetic Motorsports              1:33.672   0.009   0.074  86.779
 4.  99 GS    Automatic Racing                 1:33.869   0.197   0.271  86.597
 5.  55 GS    Hyper Sport                      1:33.989   0.120   0.391  86.487
 6.  52 GS    Rehagen Racing                   1:34.147   0.158   0.549  86.342
 7.  97 GS    Turner Motorsport                1:34.163   0.016   0.565  86.327
 8.  79 GS    Kinetic Motorsports              1:34.405   0.242   0.807  86.106
 9.   5 GS    Blackforest Motorsports          1:34.435   0.030   0.837  86.078
10.  59 GS    Rehagen Racing                   1:34.508   0.073   0.910  86.012
11.  40 GS    TRG                              1:34.635   0.127   1.037  85.896
12.  39 GS    TRG                              1:34.691   0.056   1.093  85.846
13.  91 GS    Automatic Racing                 1:34.805   0.114   1.207  85.742
14.  26 GS    Fiorano/C-MAX Racing             1:34.835   0.030   1.237  85.715
15.  41 GS    TRG                              1:34.879   0.044   1.281  85.675
16.  38 GS    BGB Motorsports                  1:34.882   0.003   1.284  85.673
17.  33 GS    Playboy Racing                   1:34.916   0.034   1.318  85.642
18.  37 GS    JBS Racing                       1:34.961   0.045   1.363  85.601
19.  25 GS    Fiorano/C-MAX Racing             1:35.080   0.119   1.482  85.494
20.  78 GS    Kinetic Motorsports              1:35.209   0.129   1.611  85.378
21.  16 GS    Champion Motorsports             1:35.241   0.032   1.643  85.350
22.  83 GS    BGB Motorsports                  1:35.274   0.033   1.676  85.320
23.   4 GS    Blackforest Motorsports          1:35.290   0.016   1.692  85.306
24.  54 GS    Hyper Sport                      1:35.363   0.073   1.765  85.241
25.  28 GS    Fall-Line Motorsports            1:35.366   0.003   1.768  85.238
26.  90 GS    Automatic Racing                 1:35.390   0.024   1.792  85.216
27.  46 GS    Fall-Line Motorsports            1:35.425   0.035   1.827  85.185
28.  89 GS    Ranger Sports Racing             1:35.449   0.024   1.851  85.164
29.  05 GS    Team Sahlen                      1:35.679   0.230   2.081  84.959
30. 154 GS    Rehagen Racing                   1:35.711   0.032   2.113  84.931
31.  17 GS    Team Centurion                   1:35.851   0.140   2.253  84.807
32.  07 GS    Cardiosport Racing               1:35.862   0.011   2.264  84.797
33.  88 GS    Ranger Sports Racing             1:35.898   0.036   2.300  84.765
34.  43 GS    ASC Motorsports                  1:36.034   0.136   2.436  84.645
35.  04 GS    Team Sahlen                      1:36.226   0.192   2.628  84.476
36. 137 GS    JBS Motorsports                  1:36.704   0.478   3.106  84.059
37.  87 GS    Ranger Sports Racing             1:37.301   0.597   3.703  83.543
38.  42 GS    TRG                              1:38.421   1.120   4.823  82.592
39.  49 GS    Marcus Motorsports               1:38.625   0.204   5.027  82.421
40.  20 GS    Horsepower Ranch                  No Time

Be part of something big

Write a comment
Show comments
About this article
Series Grand-Am
Teams Kinetic Motorsports , Rehagen Racing , Turner Motorsport , Team Sahlen , Automatic Racing , Fall-Line Motorsports